createdAt,value
2022-08-17T00:01:52.031Z,74.49
2022-08-17T00:04:23.022Z,73.68
2022-08-17T00:06:50.967Z,74.77
2022-08-17T00:09:19.553Z,74.77
2022-08-17T00:12:34.727Z,74.33
2022-08-17T00:14:37.941Z,74.09
2022-08-17T00:17:07.052Z,73.72
2022-08-17T00:19:36.290Z,73.03
2022-08-17T00:22:31.567Z,73.76
2022-08-17T00:24:54.627Z,73.71
2022-08-17T00:27:22.517Z,72.66
2022-08-17T00:29:50.404Z,73.96
2022-08-17T00:33:14.143Z,74.25
2022-08-17T00:35:12.455Z,73.00
2022-08-17T00:37:40.325Z,73.21
2022-08-17T00:40:11.017Z,72.23
2022-08-17T00:42:39.417Z,72.07
2022-08-17T00:45:09.811Z,71.14
2022-08-17T00:47:37.691Z,72.40
2022-08-17T00:50:09.867Z,72.52
2022-08-17T00:52:44.472Z,72.00
2022-08-17T00:55:12.794Z,70.59
2022-08-17T00:57:46.147Z,70.61
2022-08-17T01:00:17.529Z,72.00
2022-08-17T01:02:48.047Z,71.57
2022-08-17T01:05:20.631Z,70.82
2022-08-17T01:07:50.759Z,71.65
2022-08-17T01:10:58.842Z,70.93
2022-08-17T01:13:12.168Z,71.47
2022-08-17T01:15:46.178Z,71.39
2022-08-17T01:18:17.960Z,71.64
2022-08-17T01:20:51.061Z,70.37
2022-08-17T01:23:23.446Z,70.85
2022-08-17T01:25:53.314Z,71.65
2022-08-17T01:28:52.598Z,71.59
2022-08-17T01:31:10.482Z,71.25
2022-08-17T01:33:38.385Z,71.52
2022-08-17T01:36:08.098Z,70.66
2022-08-17T01:38:38.135Z,72.02
2022-08-17T01:41:11.222Z,72.13
2022-08-17T01:43:43.554Z,72.16
2022-08-17T01:46:17.699Z,71.93
2022-08-17T01:48:47.464Z,71.79
2022-08-17T01:51:16.603Z,71.51
2022-08-17T01:53:49.083Z,72.13
2022-08-17T01:56:19.355Z,72.33
2022-08-17T01:58:47.916Z,71.36
2022-08-17T02:01:18.912Z,72.28
2022-08-17T02:03:59.488Z,71.99
2022-08-17T02:06:32.824Z,72.23
2022-08-17T02:09:16.876Z,71.87
2022-08-17T02:11:46.228Z,71.82
2022-08-17T02:14:14.931Z,72.80
2022-08-17T02:16:43.729Z,72.71
2022-08-17T02:19:16.994Z,73.08
2022-08-17T02:21:47.833Z,72.86
2022-08-17T02:24:58.990Z,73.35
2022-08-17T02:27:09.460Z,74.40
2022-08-17T02:29:37.297Z,74.38
2022-08-17T02:32:05.913Z,74.27
2022-08-17T02:34:34.144Z,72.90
2022-08-17T02:37:01.973Z,72.68
2022-08-17T02:39:31.446Z,73.18
2022-08-17T02:42:02.562Z,72.90
2022-08-17T02:44:39.379Z,72.91
2022-08-17T02:47:09.335Z,73.46
2022-08-17T02:49:37.305Z,73.53
2022-08-17T02:52:07.058Z,73.34
2022-08-17T02:54:39.693Z,73.32
2022-08-17T02:57:08.886Z,74.19
2022-08-17T02:59:36.700Z,74.90
2022-08-17T03:02:04.886Z,74.27
2022-08-17T03:04:35.156Z,73.56
2022-08-17T03:07:03.523Z,74.24
2022-08-17T03:09:31.347Z,75.03
2022-08-17T03:12:07.314Z,75.99
2022-08-17T03:14:41.474Z,75.32
2022-08-17T03:17:09.996Z,76.67
2022-08-17T03:19:42.900Z,75.72
2022-08-17T03:22:37.357Z,74.82
2022-08-17T03:24:59.690Z,75.94
2022-08-17T03:27:28.939Z,75.54
2022-08-17T03:29:56.678Z,74.67
2022-08-17T03:32:24.608Z,74.45
2022-08-17T03:34:52.474Z,75.33
2022-08-17T03:37:20.262Z,76.45
2022-08-17T03:39:48.131Z,75.58
2022-08-17T03:42:32.513Z,74.43
2022-08-17T03:45:05.606Z,74.61
2022-08-17T03:47:50.831Z,74.01
2022-08-17T03:50:37.548Z,73.81
2022-08-17T03:53:26.624Z,73.38
2022-08-17T03:56:12.105Z,74.80
2022-08-17T03:58:39.920Z,73.81
2022-08-17T04:01:09.574Z,73.47
2022-08-17T04:03:37.447Z,73.65
2022-08-17T04:06:08.208Z,73.39
2022-08-17T04:08:36.536Z,74.64
2022-08-17T04:11:04.337Z,73.72
2022-08-17T04:13:32.166Z,73.64
2022-08-17T04:15:59.978Z,73.90
2022-08-17T04:18:29.257Z,74.56
2022-08-17T04:20:57.130Z,74.66
2022-08-17T04:23:32.637Z,73.35
2022-08-17T04:26:00.886Z,73.82
2022-08-17T04:28:28.783Z,72.33
2022-08-17T04:30:56.639Z,71.60
2022-08-17T04:33:26.636Z,70.88
2022-08-17T04:35:58.320Z,72.18
2022-08-17T04:38:27.942Z,72.88
2022-08-17T04:41:14.295Z,72.41
2022-08-17T04:43:44.365Z,72.74
2022-08-17T04:46:15.580Z,72.25
2022-08-17T04:48:46.051Z,71.87
2022-08-17T04:51:21.699Z,71.65
2022-08-17T04:53:54.563Z,71.37
2022-08-17T04:56:25.896Z,72.11
2022-08-17T04:58:55.807Z,72.38
2022-08-17T05:01:26.587Z,72.31
2022-08-17T05:03:56.144Z,71.46
2022-08-17T05:06:25.620Z,71.53
2022-08-17T05:08:53.860Z,70.86
2022-08-17T05:11:22.054Z,70.28
2022-08-17T05:13:50.759Z,70.00
2022-08-17T05:16:19.735Z,70.92
2022-08-17T05:18:47.748Z,70.47
2022-08-17T05:21:16.158Z,70.09
2022-08-17T05:23:53.934Z,70.58
2022-08-17T05:26:26.877Z,71.68
2022-08-17T05:28:59.436Z,72.29
2022-08-17T05:31:29.726Z,72.11
2022-08-17T05:33:57.989Z,70.72
2022-08-17T05:36:43.230Z,71.24
2022-08-17T05:39:16.439Z,71.51
2022-08-17T05:41:46.980Z,71.90
2022-08-17T05:44:14.988Z,71.94
2022-08-17T05:46:48.565Z,72.57
2022-08-17T05:49:18.949Z,72.56
2022-08-17T05:52:08.563Z,70.27
2022-08-17T05:54:52.686Z,70.55
2022-08-17T05:57:53.850Z,72.47
2022-08-17T06:00:30.854Z,71.77
2022-08-17T06:03:34.140Z,72.92
2022-08-17T06:06:16.940Z,73.12
2022-08-17T06:08:51.494Z,72.28
2022-08-17T06:11:30.941Z,68.58
2022-08-17T06:14:32.731Z,67.07
2022-08-17T06:17:05.629Z,66.06
2022-08-17T06:19:40.979Z,64.98
2022-08-17T06:22:12.278Z,64.36
2022-08-17T06:24:43.795Z,63.65
2022-08-17T06:27:20.194Z,63.53
2022-08-17T06:29:54.382Z,63.57
2022-08-17T06:32:23.207Z,64.62
2022-08-17T06:34:51.097Z,64.71
2022-08-17T06:37:42.419Z,63.47
2022-08-17T06:40:37.039Z,64.08
2022-08-17T06:43:21.084Z,64.13
2022-08-17T06:45:54.904Z,64.29
2022-08-17T06:48:26.631Z,65.06
2022-08-17T06:51:00.084Z,63.97
2022-08-17T06:53:32.197Z,63.06
2022-08-17T06:56:06.218Z,63.93
2022-08-17T06:58:37.309Z,62.91
2022-08-17T07:01:11.712Z,64.44
2022-08-17T07:03:44.792Z,64.31
2022-08-17T07:06:15.999Z,64.58
2022-08-17T07:08:53.567Z,64.71
2022-08-17T07:11:28.206Z,64.67
2022-08-17T07:14:08.347Z,64.26
2022-08-17T07:16:42.148Z,65.25
2022-08-17T07:19:11.041Z,66.40
2022-08-17T07:21:47.033Z,65.81
2022-08-17T07:24:33.101Z,66.36
2022-08-17T07:27:10.638Z,66.02
2022-08-17T07:29:46.639Z,66.72
2022-08-17T07:32:18.477Z,66.52
2022-08-17T07:35:18.340Z,68.61
2022-08-17T07:37:53.044Z,66.09
2022-08-17T07:40:26.935Z,66.25
2022-08-17T07:43:24.029Z,66.66
2022-08-17T07:46:15.690Z,67.09
2022-08-17T07:48:49.646Z,66.63
2022-08-17T07:51:31.264Z,66.52
2022-08-17T07:54:13.978Z,67.29
2022-08-17T07:56:46.898Z,67.69
2022-08-17T07:59:23.858Z,66.95
2022-08-17T08:02:10.248Z,67.29
2022-08-17T08:07:34.642Z,67.53
2022-08-17T08:10:08.630Z,67.78
2022-08-17T08:12:39.112Z,67.86
2022-08-17T08:15:19.029Z,68.23
2022-08-17T08:17:52.264Z,69.09
2022-08-17T08:20:52.348Z,68.53
2022-08-17T08:23:26.513Z,68.37
2022-08-17T08:26:05.458Z,68.58
2022-08-17T08:28:43.409Z,68.65
2022-08-17T08:31:42.222Z,69.49
2022-08-17T08:34:47.988Z,69.43
2022-08-17T08:37:22.728Z,69.85
2022-08-17T08:40:08.257Z,69.83
2022-08-17T08:42:43.213Z,69.87
2022-08-17T08:45:18.036Z,70.38
2022-08-17T08:48:57.855Z,69.89
2022-08-17T08:51:01.907Z,70.76
2022-08-17T08:53:38.971Z,70.72
2022-08-17T08:56:13.195Z,70.75
2022-08-17T08:58:52.203Z,70.65
2022-08-17T09:01:28.770Z,71.34
2022-08-17T09:04:25.512Z,71.33
2022-08-17T09:07:06.018Z,71.71
2022-08-17T09:09:49.525Z,71.12
2022-08-17T09:12:26.875Z,71.39
2022-08-17T09:15:02.527Z,71.13
2022-08-17T09:17:40.742Z,71.28
2022-08-17T09:20:28.053Z,70.70
2022-08-17T09:23:03.921Z,70.30
2022-08-17T09:25:36.061Z,70.29
2022-08-17T09:28:07.726Z,70.38
2022-08-17T09:30:42.051Z,69.59
2022-08-17T09:33:12.582Z,70.05
2022-08-17T09:35:44.655Z,70.43
2022-08-17T09:38:22.673Z,71.25
2022-08-17T09:40:56.473Z,70.24
2022-08-17T09:43:32.813Z,70.30
2022-08-17T09:46:04.927Z,70.58
2022-08-17T09:48:38.129Z,69.89
2022-08-17T09:51:12.955Z,70.44
2022-08-17T09:53:44.699Z,70.71
2022-08-17T09:56:34.183Z,70.54
2022-08-17T09:59:28.468Z,70.27
2022-08-17T10:02:33.756Z,70.61
2022-08-17T10:05:06.699Z,71.02
2022-08-17T10:07:41.614Z,71.48
2022-08-17T10:10:16.855Z,71.77
2022-08-17T10:12:56.779Z,72.27
2022-08-17T10:15:46.861Z,72.75
2022-08-17T10:18:37.682Z,73.06
2022-08-17T10:21:25.940Z,73.52
2022-08-17T10:24:19.877Z,73.75
2022-08-17T10:26:56.881Z,75.76
2022-08-17T10:29:40.813Z,77.48
2022-08-17T10:32:25.626Z,78.37
2022-08-17T10:35:07.076Z,77.91
2022-08-17T10:37:47.492Z,78.61
2022-08-17T10:40:35.956Z,78.86
2022-08-17T10:43:29.253Z,78.00
2022-08-17T10:46:10.349Z,77.61
2022-08-17T10:49:33.921Z,77.30
2022-08-17T10:52:03.729Z,77.56
2022-08-17T10:54:49.767Z,77.51
2022-08-17T10:57:39.277Z,76.71
2022-08-17T11:00:15.453Z,76.75
2022-08-17T11:02:50.814Z,76.03
2022-08-17T11:05:43.447Z,75.03
2022-08-17T11:09:05.445Z,75.57
2022-08-17T11:11:47.410Z,73.84
2022-08-17T11:14:28.359Z,72.98
2022-08-17T11:17:15.900Z,73.09
2022-08-17T11:20:05.969Z,70.42
2022-08-17T11:22:53.012Z,70.65
2022-08-17T11:25:32.714Z,67.38
2022-08-17T11:28:08.694Z,67.17
2022-08-17T11:30:47.005Z,68.19
2022-08-17T11:33:53.455Z,69.52
2022-08-17T11:36:34.798Z,71.28
2022-08-17T11:39:20.228Z,70.31
2022-08-17T11:41:55.130Z,67.42
2022-08-17T11:44:37.540Z,66.31
2022-08-17T11:47:33.443Z,67.00
2022-08-17T11:50:43.153Z,66.67
2022-08-17T11:54:08.725Z,68.18
2022-08-17T11:56:47.135Z,69.12
2022-08-17T11:59:52.362Z,69.17
2022-08-17T12:02:38.733Z,69.49
2022-08-17T12:05:28.462Z,69.08
2022-08-17T12:08:07.986Z,67.03
2022-08-17T12:10:54.175Z,63.17
2022-08-17T12:13:23.700Z,62.96
2022-08-17T12:15:59.813Z,61.32
2022-08-17T12:18:30.060Z,58.56
2022-08-17T12:21:19.095Z,57.56
2022-08-17T12:23:57.017Z,56.61
2022-08-17T12:26:30.295Z,56.11
2022-08-17T12:29:01.964Z,55.52
2022-08-17T12:31:34.704Z,55.61
2022-08-17T12:34:03.856Z,55.32
2022-08-17T12:36:34.237Z,55.75
2022-08-17T12:39:14.201Z,55.20
2022-08-17T12:41:45.245Z,54.95
2022-08-17T12:44:16.463Z,54.64
2022-08-17T12:46:54.864Z,53.28
2022-08-17T12:49:31.044Z,53.81
2022-08-17T12:52:06.959Z,54.53
2022-08-17T12:54:41.650Z,54.16
2022-08-17T12:57:16.099Z,53.32
2022-08-17T12:59:47.091Z,53.48
2022-08-17T13:02:43.696Z,52.74
2022-08-17T13:05:21.131Z,53.04
2022-08-17T13:07:50.877Z,52.55
2022-08-17T13:10:22.600Z,52.58
2022-08-17T13:12:52.435Z,53.19
2022-08-17T13:15:29.612Z,54.42
2022-08-17T13:18:03.834Z,55.96
2022-08-17T13:20:33.190Z,55.94
2022-08-17T13:23:11.387Z,56.24
2022-08-17T13:25:40.178Z,55.49
2022-08-17T13:28:29.902Z,55.67
2022-08-17T13:31:25.067Z,57.60
2022-08-17T13:33:53.152Z,58.57
2022-08-17T13:36:30.020Z,60.05
2022-08-17T13:39:12.993Z,60.88
2022-08-17T13:41:41.057Z,60.32
2022-08-17T13:44:31.237Z,60.45
2022-08-17T13:47:00.611Z,59.94
2022-08-17T13:49:41.852Z,59.96
2022-08-17T13:52:38.028Z,58.95
2022-08-17T13:55:16.713Z,58.26
2022-08-17T13:57:47.700Z,58.17
2022-08-17T14:00:20.355Z,58.90
2022-08-17T14:02:48.183Z,59.18
2022-08-17T14:05:15.992Z,59.52
2022-08-17T14:07:46.983Z,59.29
2022-08-17T14:10:19.006Z,59.00
2022-08-17T14:12:57.141Z,58.57
2022-08-17T14:15:54.810Z,58.50
2022-08-17T14:18:55.231Z,59.59
2022-08-17T14:21:08.416Z,60.73
2022-08-17T14:23:36.666Z,60.87
2022-08-17T14:26:06.562Z,61.18
2022-08-17T14:28:36.492Z,62.01
2022-08-17T14:31:04.731Z,63.24
2022-08-17T14:33:32.551Z,64.35
2022-08-17T14:36:00.817Z,65.17
2022-08-17T14:38:28.660Z,64.98
2022-08-17T14:40:56.553Z,65.53
2022-08-17T14:43:27.153Z,65.92
2022-08-17T14:45:54.997Z,65.41
2022-08-17T14:48:22.961Z,66.07
2022-08-17T14:50:50.768Z,65.61
2022-08-17T14:53:20.293Z,66.00
2022-08-17T14:55:50.947Z,66.25
2022-08-17T14:58:19.921Z,66.73
2022-08-17T15:00:50.922Z,66.75
2022-08-17T15:03:19.426Z,66.48
2022-08-17T15:05:47.289Z,66.97
2022-08-17T15:08:16.222Z,66.69
2022-08-17T15:10:44.749Z,67.39
2022-08-17T15:13:20.652Z,67.06
2022-08-17T15:15:52.032Z,67.25
2022-08-17T15:18:22.836Z,67.65
2022-08-17T15:20:51.266Z,67.88
2022-08-17T15:23:21.664Z,68.33
2022-08-17T15:25:51.142Z,68.72
2022-08-17T15:28:23.000Z,68.51
2022-08-17T15:30:53.159Z,67.63
2022-08-17T15:33:29.198Z,67.47
2022-08-17T15:35:59.235Z,68.24
2022-08-17T15:38:28.039Z,67.40
2022-08-17T15:40:57.613Z,66.98
2022-08-17T15:43:32.411Z,66.25
2022-08-17T15:46:03.662Z,66.45
2022-08-17T15:48:42.049Z,67.03
2022-08-17T15:51:13.112Z,66.13
2022-08-17T15:53:42.120Z,65.54
2022-08-17T15:56:10.085Z,64.47
2022-08-17T15:58:40.110Z,64.29
2022-08-17T16:01:16.534Z,65.34
2022-08-17T16:04:03.936Z,64.75
2022-08-17T16:06:34.716Z,64.03
2022-08-17T16:09:02.637Z,64.83
2022-08-17T16:11:30.467Z,63.59
2022-08-17T16:13:58.228Z,63.39
2022-08-17T16:16:28.933Z,63.23
2022-08-17T16:18:58.461Z,62.71
2022-08-17T16:21:27.523Z,62.66
2022-08-17T16:23:58.452Z,63.38
2022-08-17T16:26:27.254Z,63.78
2022-08-17T16:28:55.461Z,63.64
2022-08-17T16:31:23.360Z,63.67
2022-08-17T16:34:16.162Z,64.14
2022-08-17T16:36:41.445Z,64.11
2022-08-17T16:39:23.815Z,64.83
2022-08-17T16:41:51.636Z,65.21
2022-08-17T16:44:22.268Z,64.47
2022-08-17T16:46:50.301Z,65.47
2022-08-17T16:49:36.025Z,66.37
2022-08-17T16:52:07.559Z,67.29
2022-08-17T16:54:36.298Z,67.97
2022-08-17T16:57:05.517Z,66.97
2022-08-17T16:59:42.184Z,66.32
2022-08-17T17:02:14.039Z,66.03
2022-08-17T17:04:49.218Z,65.87
2022-08-17T17:07:52.014Z,66.26
2022-08-17T17:10:23.674Z,66.20
2022-08-17T17:13:02.187Z,66.05
2022-08-17T17:15:46.160Z,65.66
2022-08-17T17:18:15.383Z,65.89
2022-08-17T17:20:50.702Z,65.48
2022-08-17T17:23:33.177Z,65.58
2022-08-17T17:26:09.436Z,64.68
2022-08-17T17:28:44.116Z,64.98
2022-08-17T17:31:15.722Z,63.98
2022-08-17T17:33:48.235Z,65.34
2022-08-17T17:36:25.149Z,66.98
2022-08-17T17:38:55.194Z,67.19
2022-08-17T17:41:29.202Z,67.90
2022-08-17T17:44:05.342Z,67.57
2022-08-17T17:46:39.370Z,67.61
2022-08-17T17:49:09.385Z,67.92
2022-08-17T17:52:06.606Z,67.75
2022-08-17T17:54:50.218Z,68.69
2022-08-17T17:57:25.595Z,68.52
2022-08-17T18:00:02.563Z,70.29
2022-08-17T18:02:55.651Z,70.33
2022-08-17T18:05:47.710Z,70.71
2022-08-17T18:08:32.058Z,70.56
2022-08-17T18:11:13.153Z,72.15
2022-08-17T18:13:55.718Z,70.76
2022-08-17T18:16:23.836Z,70.96
2022-08-17T18:18:53.660Z,69.59
2022-08-17T18:21:24.103Z,70.14
2022-08-17T18:24:00.850Z,71.89
2022-08-17T18:26:39.531Z,69.72
2022-08-17T18:29:22.261Z,72.01
2022-08-17T18:32:10.755Z,71.60
2022-08-17T18:34:47.394Z,72.46
2022-08-17T18:37:32.882Z,73.07
2022-08-17T18:40:24.728Z,74.59
2022-08-17T18:43:06.825Z,74.07
2022-08-17T18:45:39.580Z,74.25
2022-08-17T18:48:25.579Z,77.00
2022-08-17T18:51:00.850Z,77.59
2022-08-17T18:53:34.619Z,77.52
2022-08-17T18:56:25.899Z,79.50
2022-08-17T18:59:06.016Z,79.32
2022-08-17T19:01:54.662Z,80.20
2022-08-17T19:04:37.702Z,80.34
2022-08-17T19:07:13.379Z,81.04
2022-08-17T19:09:46.482Z,81.07
2022-08-17T19:12:27.411Z,80.65
2022-08-17T19:14:59.990Z,81.76
2022-08-17T19:17:36.435Z,81.89
2022-08-17T19:20:11.703Z,82.22
2022-08-17T19:23:08.248Z,82.31
2022-08-17T19:25:41.460Z,81.23
2022-08-17T19:28:22.280Z,81.03
2022-08-17T19:30:55.698Z,82.21
2022-08-17T19:33:23.966Z,81.88
2022-08-17T19:36:00.217Z,81.07
2022-08-17T19:38:40.920Z,80.96
2022-08-17T19:41:17.129Z,79.74
2022-08-17T19:44:11.182Z,79.83
2022-08-17T19:46:50.062Z,81.10
2022-08-17T19:49:33.385Z,81.44
2022-08-17T19:52:24.086Z,82.56
2022-08-17T19:54:58.848Z,82.01
2022-08-17T19:57:37.785Z,81.60
2022-08-17T20:00:11.994Z,82.02
2022-08-17T20:02:49.101Z,82.68
2022-08-17T20:05:22.381Z,82.80
2022-08-17T20:07:55.417Z,82.54
2022-08-17T20:10:32.272Z,83.53
2022-08-17T20:13:04.544Z,81.99
2022-08-17T20:15:37.722Z,81.44
2022-08-17T20:18:13.446Z,82.56
2022-08-17T20:20:48.333Z,82.81
2022-08-17T20:23:38.997Z,82.57
2022-08-17T20:26:18.943Z,83.04
2022-08-17T20:29:37.715Z,82.70
2022-08-17T20:32:20.092Z,82.85
2022-08-17T20:34:48.972Z,82.58
2022-08-17T20:37:32.045Z,83.53
2022-08-17T20:40:20.482Z,82.95
2022-08-17T20:42:48.613Z,83.19
2022-08-17T20:45:57.663Z,83.57
2022-08-17T20:48:37.863Z,83.10
2022-08-17T20:51:18.721Z,84.58
2022-08-17T20:54:35.405Z,85.03
2022-08-17T20:57:13.873Z,85.08
2022-08-17T21:00:16.470Z,85.27
2022-08-17T21:02:46.164Z,86.11
2022-08-17T21:05:59.786Z,85.92
2022-08-17T21:08:30.681Z,85.89
2022-08-17T21:11:00.087Z,85.17
2022-08-17T21:13:53.117Z,86.35
2022-08-17T21:16:33.703Z,86.61
2022-08-17T21:19:22.688Z,87.07
2022-08-17T21:22:06.314Z,87.39
2022-08-17T21:24:46.390Z,87.77
2022-08-17T21:27:30.112Z,87.82
2022-08-17T21:30:22.952Z,88.09
2022-08-17T21:33:26.762Z,86.54
2022-08-17T21:36:11.344Z,87.06
2022-08-17T21:38:51.546Z,88.33
2022-08-17T21:41:23.064Z,88.81
2022-08-17T21:43:54.823Z,88.63
2022-08-17T21:46:28.704Z,89.22
2022-08-17T21:49:03.031Z,88.89
2022-08-17T21:51:45.019Z,88.96
2022-08-17T21:54:26.988Z,88.24
2022-08-17T21:56:55.322Z,87.56
2022-08-17T21:59:28.401Z,88.47
2022-08-17T22:01:58.497Z,88.43
2022-08-17T22:04:30.651Z,87.71
2022-08-17T22:07:01.131Z,88.62
2022-08-17T22:09:32.986Z,88.57
2022-08-17T22:12:04.391Z,88.93
2022-08-17T22:14:53.044Z,89.37
2022-08-17T22:17:24.046Z,89.87
2022-08-17T22:19:54.647Z,90.48
2022-08-17T22:22:27.351Z,91.16
2022-08-17T22:24:58.083Z,91.01
2022-08-17T22:27:52.109Z,91.54
2022-08-17T22:30:28.515Z,92.58
2022-08-17T22:32:57.573Z,93.09
2022-08-17T22:35:41.503Z,93.33
2022-08-17T22:38:34.119Z,92.46
2022-08-17T22:41:36.583Z,91.61
2022-08-17T22:44:15.019Z,90.31
2022-08-17T22:46:54.404Z,91.00
2022-08-17T22:49:26.737Z,91.41
2022-08-17T22:52:03.644Z,90.66
2022-08-17T22:54:49.331Z,90.55
2022-08-17T22:57:52.370Z,90.29
2022-08-17T23:00:32.740Z,91.65
2022-08-17T23:03:13.284Z,92.10
2022-08-17T23:05:45.017Z,91.89
2022-08-17T23:08:13.635Z,90.65
2022-08-17T23:10:42.375Z,91.12
2022-08-17T23:13:13.292Z,91.52
2022-08-17T23:15:42.063Z,91.90
2022-08-17T23:18:09.898Z,92.52
2022-08-17T23:20:40.060Z,92.04
2022-08-17T23:23:09.011Z,92.04
2022-08-17T23:25:37.581Z,92.89
2022-08-17T23:28:08.222Z,92.46
2022-08-17T23:30:41.284Z,92.75
2022-08-17T23:33:16.760Z,93.21
2022-08-17T23:35:44.578Z,92.40
2022-08-17T23:38:14.196Z,92.32
2022-08-17T23:40:42.087Z,92.90
2022-08-17T23:43:17.650Z,93.51
2022-08-17T23:45:57.336Z,92.74
2022-08-17T23:48:35.291Z,93.47
2022-08-17T23:51:06.024Z,94.24
2022-08-17T23:53:36.668Z,94.79
2022-08-17T23:56:10.201Z,96.14
2022-08-17T23:58:39.420Z,96.81
